Nagaleader — VRDD5 — position and weather

sailwx.info

Track history (hours):
 
Tides and Currents Weather Stations Pressure Air Temp Water Temp Dewpoint Dewpoint Depression Visibility Wind Speed Wind Dir Waves Ship Positions

Nagaleader

Last reported at 2014-Nov-27 06:06 UTC. Time now 2014-Nov-27 14:29 UTC.
Position N 25°24' E 119°58'.

Length 113 m; draft 7 m.

Type: Cargo ship. MMSI: 477926700.

Date/timePositionNaut miles runAvg speedWind from/ knotsBaromVisibWave heightAir tempDewpointWater temp
2014-Nov-27 06:06N 25°24' E 119°58'2314.0
2014-Nov-27 04:29N 25°47' E 119°54'2210.7
2014-Nov-27 02:26N 26°06' E 119°42'9 9.8
2014-Nov-27 01:33N 26°06' E 119°32'6 6.0
2014-Nov-27 00:33N 26°00' E 119°29'0 0.0
2014-Nov-26 23:31N 26°00' E 119°29'0 0.0
2014-Nov-26 22:31N 26°00' E 119°29'0 0.0
2014-Nov-26 21:31N 26°00' E 119°29'0 0.0
2014-Nov-26 20:31N 26°00' E 119°29'0 0.0
2014-Nov-26 19:31N 26°00' E 119°29'0 0.0
2014-Nov-26 18:31N 26°00' E 119°29'0 0.0
2014-Nov-26 17:30N 26°00' E 119°29'0 0.0
2014-Nov-26 16:18N 26°00' E 119°29'0 0.0
2014-Nov-26 15:18N 26°00' E 119°29'0 0.0
2014-Nov-26 14:18N 26°00' E 119°29'0 0.0
2014-Nov-26 13:30N 26°00' E 119°29'0 0.0
2014-Nov-26 12:30N 26°00' E 119°29'0 0.0
2014-Nov-26 11:24N 26°00' E 119°29'0 0.0
2014-Nov-26 10:30N 26°00' E 119°29'0 0.0
2014-Nov-26 09:30N 26°00' E 119°29'0 0.0
2014-Nov-26 08:30N 26°00' E 119°29'0 0.0
2014-Nov-26 07:30N 26°00' E 119°29'0 0.0
2014-Nov-26 06:12N 26°00' E 119°29'0 0.0
2014-Nov-26 05:30N 26°00' E 119°29'0 0.0
2014-Nov-26 04:30N 26°00' E 119°29'0 0.0
2014-Nov-26 03:30N 26°00' E 119°29'0 0.0
2014-Nov-26 02:30N 26°00' E 119°29'0 0.0
2014-Nov-26 01:30N 26°00' E 119°29'0 0.0
2014-Nov-26 00:30N 26°00' E 119°29'0 0.1
2014-Nov-25 23:30N 26°00' E 119°29'0 0.1
2014-Nov-25 22:30N 26°00' E 119°29'0 0.0
2014-Nov-25 21:30N 26°00' E 119°29'0 0.0
2014-Nov-25 20:30N 26°00' E 119°29'0 0.0
2014-Nov-25 19:30N 26°00' E 119°29'0 0.0
2014-Nov-25 18:30N 26°00' E 119°29'0 0.0
2014-Nov-25 17:30N 26°00' E 119°29'0 0.0
2014-Nov-25 16:24N 26°00' E 119°29'0 0.0
2014-Nov-25 15:30N 26°00' E 119°29'0 0.0
2014-Nov-25 14:30N 26°00' E 119°29'0 0.4
2014-Nov-25 13:33N 26°00' E 119°29'19010.0
2014-Nov-24 18:32N 22°53' E 120°03'1212.4
2014-Nov-24 17:33N 22°42' E 120°09'1010.3
2014-Nov-24 16:33N 22°35' E 120°18'2 0.9
2014-Nov-24 14:21N 22°34' E 120°19'0 0.0
2014-Nov-24 11:21N 22°34' E 120°19'0 0.0
2014-Nov-24 10:27N 22°34' E 120°19'1 0.2
2014-Nov-24 04:26N 22°33' E 120°20'1 0.2
2014-Nov-24 00:33N 22°33' E 120°19'9 8.8
2014-Nov-23 23:33N 22°37' E 120°10'1111.4
2014-Nov-23 22:33N 22°48' E 120°06'20211.7
2014-Nov-23 05:18N 26°08' E 119°35'810.6
2014-Nov-23 04:33N 26°02' E 119°30'2 1.7
2014-Nov-23 03:30N 26°00' E 119°29'0 0.1
2014-Nov-23 02:30N 26°00' E 119°29'0 0.0
2014-Nov-23 01:18N 26°00' E 119°29'0 0.0
2014-Nov-23 00:30N 26°00' E 119°29'0 0.0
2014-Nov-22 23:24N 26°00' E 119°29'0 0.1
2014-Nov-22 22:30N 26°00' E 119°29'0 0.0
2014-Nov-22 21:30N 26°00' E 119°29'0 0.1
2014-Nov-22 20:30N 26°00' E 119°29'0 0.0
2014-Nov-22 19:18N 26°00' E 119°29'0 0.0
2014-Nov-22 18:24N 26°00' E 119°29'0 0.0
2014-Nov-22 17:30N 26°00' E 119°29'0 0.0
2014-Nov-22 16:30N 26°00' E 119°29'0 0.0
2014-Nov-22 15:30N 26°00' E 119°29'0 0.1
2014-Nov-22 14:30N 26°00' E 119°29'0 0.4
2014-Nov-22 13:33N 25°60' E 119°29'9 9.3
2014-Nov-22 12:34N 26°08' E 119°34'19511.5
2014-Nov-21 19:33N 22°54' E 120°03'1212.5
2014-Nov-21 18:33N 22°42' E 120°08'1212.0
2014-Nov-21 17:33N 22°33' E 120°16'3 2.9
2014-Nov-21 16:33N 22°34' E 120°19'0 0.1
2014-Nov-21 15:33N 22°34' E 120°19'0 0.1
2014-Nov-21 14:27N 22°34' E 120°19'0 0.1
2014-Nov-21 13:27N 22°34' E 120°19'0 0.1
2014-Nov-21 12:21N 22°34' E 120°19'0 0.2
2014-Nov-21 11:33N 22°33' E 120°19'1 0.9
2014-Nov-21 10:27N 22°33' E 120°20'0 0.0
2014-Nov-21 09:33N 22°33' E 120°20'0 0.0
2014-Nov-21 07:21N 22°33' E 120°20'0 0.0
2014-Nov-21 06:15N 22°33' E 120°20'0 0.0
2014-Nov-21 05:33N 22°33' E 120°20'0 0.0
2014-Nov-21 04:27N 22°33' E 120°20'0 0.0
2014-Nov-21 03:27N 22°33' E 120°20'0 0.0
2014-Nov-21 02:27N 22°33' E 120°20'0 0.0
2014-Nov-21 01:33N 22°33' E 120°20'0 0.0
2014-Nov-21 00:32N 22°33' E 120°20'4 4.1
2014-Nov-20 23:33N 22°33' E 120°15'4 3.7
2014-Nov-20 22:33N 22°31' E 120°12'9 9.3
2014-Nov-20 21:33N 22°39' E 120°09'18912.3
2014-Nov-20 06:14N 25°48' E 119°54'1911.2
2014-Nov-20 04:32N 26°05' E 119°45'1010.4
2014-Nov-20 03:33N 26°08' E 119°34'9 8.5
2014-Nov-20 02:31N 26°00' E 119°29'0 0.0
2014-Nov-20 01:25N 26°00' E 119°29'0 0.0
2014-Nov-20 00:31N 26°00' E 119°29'0 0.0
2014-Nov-19 23:31N 26°00' E 119°29'0 0.0
2014-Nov-19 22:31N 26°00' E 119°29'0 0.0
2014-Nov-19 21:31N 26°00' E 119°29'0 0.0
2014-Nov-19 20:31N 26°00' E 119°29'0 0.0
2014-Nov-19 19:25N 26°00' E 119°29'0 0.0
2014-Nov-19 18:31N 26°00' E 119°29'0 0.1
2014-Nov-19 17:31N 26°00' E 119°29'0 0.1
2014-Nov-19 16:31N 26°00' E 119°29'0 0.0
2014-Nov-19 15:31N 26°00' E 119°29'0 0.0
2014-Nov-19 14:31N 26°00' E 119°29'0 0.0
2014-Nov-19 13:31N 26°00' E 119°29'0 0.0
2014-Nov-19 12:25N 26°00' E 119°29'0 0.0
2014-Nov-19 11:31N 26°00' E 119°29'0 0.0
2014-Nov-19 10:31N 26°00' E 119°29'0 0.2
2014-Nov-19 09:33N 26°00' E 119°29'68 6.1
2014-Nov-18 22:33N 24°54' E 119°14'1010.4
2014-Nov-18 21:33N 24°47' E 119°06'1010.1
2014-Nov-18 20:33N 24°37' E 119°03'121 6.6
2014-Nov-18 02:07N 22°47' E 119°57'711.8
2014-Nov-18 01:33N 22°44' E 120°03'1312.7
2014-Nov-18 00:33N 22°37' E 120°15'5 5.1
2014-Nov-17 23:32N 22°34' E 120°19'0 0.0
2014-Nov-17 22:26N 22°34' E 120°19'0 0.0
2014-Nov-17 21:32N 22°34' E 120°19'0 0.0
2014-Nov-17 20:32N 22°34' E 120°19'0 0.0
2014-Nov-17 19:32N 22°34' E 120°19'1 1.0
2014-Nov-17 18:33N 22°33' E 120°20'0 0.2
2014-Nov-17 17:20N 22°33' E 120°20'0 0.0
2014-Nov-17 16:32N 22°33' E 120°20'0 0.0
2014-Nov-17 15:32N 22°33' E 120°20'0 0.0
2014-Nov-17 14:32N 22°33' E 120°20'0 0.0
2014-Nov-17 13:32N 22°33' E 120°20'0 0.0
2014-Nov-17 12:32N 22°33' E 120°20'1 0.8
2014-Nov-17 11:32N 22°33' E 120°19'3 3.4
2014-Nov-17 10:34N 22°32' E 120°16'0 0.0
2014-Nov-17 09:34N 22°32' E 120°16'0 0.0
2014-Nov-17 08:33N 22°32' E 120°16'0 0.0
2014-Nov-17 07:33N 22°32' E 120°16'0 0.0
2014-Nov-17 06:34N 22°32' E 120°16'  
Track history (hours):
 
Tides and Currents Weather Stations Pressure Air Temp Water Temp Dewpoint Dewpoint Depression Visibility Wind Speed Wind Dir Waves Ship Positions

Nagaleader

Last reported at 2014-Nov-27 06:06 UTC. Time now 2014-Nov-27 14:29 UTC.
Position N 25°24' E 119°58'.

Length 113 m; draft 7 m.

Type: Cargo ship. MMSI: 477926700.

Date/timePositionNaut miles runAvg speedWind from/ knotsBaromVisibWave heightAir tempDewpointWater temp
2014-Nov-27 06:06N 25°24' E 119°58'2314.0
2014-Nov-27 04:29N 25°47' E 119°54'2210.7
2014-Nov-27 02:26N 26°06' E 119°42'9 9.8
2014-Nov-27 01:33N 26°06' E 119°32'6 6.0
2014-Nov-27 00:33N 26°00' E 119°29'0 0.0
2014-Nov-26 23:31N 26°00' E 119°29'0 0.0
2014-Nov-26 22:31N 26°00' E 119°29'0 0.0
2014-Nov-26 21:31N 26°00' E 119°29'0 0.0
2014-Nov-26 20:31N 26°00' E 119°29'0 0.0
2014-Nov-26 19:31N 26°00' E 119°29'0 0.0
2014-Nov-26 18:31N 26°00' E 119°29'0 0.0
2014-Nov-26 17:30N 26°00' E 119°29'0 0.0
2014-Nov-26 16:18N 26°00' E 119°29'0 0.0
2014-Nov-26 15:18N 26°00' E 119°29'0 0.0
2014-Nov-26 14:18N 26°00' E 119°29'0 0.0
2014-Nov-26 13:30N 26°00' E 119°29'0 0.0
2014-Nov-26 12:30N 26°00' E 119°29'0 0.0
2014-Nov-26 11:24N 26°00' E 119°29'0 0.0
2014-Nov-26 10:30N 26°00' E 119°29'0 0.0
2014-Nov-26 09:30N 26°00' E 119°29'0 0.0
2014-Nov-26 08:30N 26°00' E 119°29'0 0.0
2014-Nov-26 07:30N 26°00' E 119°29'0 0.0
2014-Nov-26 06:12N 26°00' E 119°29'0 0.0
2014-Nov-26 05:30N 26°00' E 119°29'0 0.0
2014-Nov-26 04:30N 26°00' E 119°29'0 0.0
2014-Nov-26 03:30N 26°00' E 119°29'0 0.0
2014-Nov-26 02:30N 26°00' E 119°29'0 0.0
2014-Nov-26 01:30N 26°00' E 119°29'0 0.0
2014-Nov-26 00:30N 26°00' E 119°29'0 0.1
2014-Nov-25 23:30N 26°00' E 119°29'0 0.1
2014-Nov-25 22:30N 26°00' E 119°29'0 0.0
2014-Nov-25 21:30N 26°00' E 119°29'0 0.0
2014-Nov-25 20:30N 26°00' E 119°29'0 0.0
2014-Nov-25 19:30N 26°00' E 119°29'0 0.0
2014-Nov-25 18:30N 26°00' E 119°29'0 0.0
2014-Nov-25 17:30N 26°00' E 119°29'0 0.0
2014-Nov-25 16:24N 26°00' E 119°29'0 0.0
2014-Nov-25 15:30N 26°00' E 119°29'0 0.0
2014-Nov-25 14:30N 26°00' E 119°29'0 0.4
2014-Nov-25 13:33N 26°00' E 119°29'19010.0
2014-Nov-24 18:32N 22°53' E 120°03'1212.4
2014-Nov-24 17:33N 22°42' E 120°09'1010.3
2014-Nov-24 16:33N 22°35' E 120°18'2 0.9
2014-Nov-24 14:21N 22°34' E 120°19'0 0.0
2014-Nov-24 11:21N 22°34' E 120°19'0 0.0
2014-Nov-24 10:27N 22°34' E 120°19'1 0.2
2014-Nov-24 04:26N 22°33' E 120°20'1 0.2
2014-Nov-24 00:33N 22°33' E 120°19'9 8.8
2014-Nov-23 23:33N 22°37' E 120°10'1111.4
2014-Nov-23 22:33N 22°48' E 120°06'20211.7
2014-Nov-23 05:18N 26°08' E 119°35'810.6
2014-Nov-23 04:33N 26°02' E 119°30'2 1.7
2014-Nov-23 03:30N 26°00' E 119°29'0 0.1
2014-Nov-23 02:30N 26°00' E 119°29'0 0.0
2014-Nov-23 01:18N 26°00' E 119°29'0 0.0
2014-Nov-23 00:30N 26°00' E 119°29'0 0.0
2014-Nov-22 23:24N 26°00' E 119°29'0 0.1
2014-Nov-22 22:30N 26°00' E 119°29'0 0.0
2014-Nov-22 21:30N 26°00' E 119°29'0 0.1
2014-Nov-22 20:30N 26°00' E 119°29'0 0.0
2014-Nov-22 19:18N 26°00' E 119°29'0 0.0
2014-Nov-22 18:24N 26°00' E 119°29'0 0.0
2014-Nov-22 17:30N 26°00' E 119°29'0 0.0
2014-Nov-22 16:30N 26°00' E 119°29'0 0.0
2014-Nov-22 15:30N 26°00' E 119°29'0 0.1
2014-Nov-22 14:30N 26°00' E 119°29'0 0.4
2014-Nov-22 13:33N 25°60' E 119°29'9 9.3
2014-Nov-22 12:34N 26°08' E 119°34'19511.5
2014-Nov-21 19:33N 22°54' E 120°03'1212.5
2014-Nov-21 18:33N 22°42' E 120°08'1212.0
2014-Nov-21 17:33N 22°33' E 120°16'3 2.9
2014-Nov-21 16:33N 22°34' E 120°19'0 0.1
2014-Nov-21 15:33N 22°34' E 120°19'0 0.1
2014-Nov-21 14:27N 22°34' E 120°19'0 0.1
2014-Nov-21 13:27N 22°34' E 120°19'0 0.1
2014-Nov-21 12:21N 22°34' E 120°19'0 0.2
2014-Nov-21 11:33N 22°33' E 120°19'1 0.9
2014-Nov-21 10:27N 22°33' E 120°20'0 0.0
2014-Nov-21 09:33N 22°33' E 120°20'0 0.0
2014-Nov-21 07:21N 22°33' E 120°20'0 0.0
2014-Nov-21 06:15N 22°33' E 120°20'0 0.0
2014-Nov-21 05:33N 22°33' E 120°20'0 0.0
2014-Nov-21 04:27N 22°33' E 120°20'0 0.0
2014-Nov-21 03:27N 22°33' E 120°20'0 0.0
2014-Nov-21 02:27N 22°33' E 120°20'0 0.0
2014-Nov-21 01:33N 22°33' E 120°20'0 0.0
2014-Nov-21 00:32N 22°33' E 120°20'4 4.1
2014-Nov-20 23:33N 22°33' E 120°15'4 3.7
2014-Nov-20 22:33N 22°31' E 120°12'9 9.3
2014-Nov-20 21:33N 22°39' E 120°09'18912.3
2014-Nov-20 06:14N 25°48' E 119°54'1911.2
2014-Nov-20 04:32N 26°05' E 119°45'1010.4
2014-Nov-20 03:33N 26°08' E 119°34'9 8.5
2014-Nov-20 02:31N 26°00' E 119°29'0 0.0
2014-Nov-20 01:25N 26°00' E 119°29'0 0.0
2014-Nov-20 00:31N 26°00' E 119°29'0 0.0
2014-Nov-19 23:31N 26°00' E 119°29'0 0.0
2014-Nov-19 22:31N 26°00' E 119°29'0 0.0
2014-Nov-19 21:31N 26°00' E 119°29'0 0.0
2014-Nov-19 20:31N 26°00' E 119°29'0 0.0
2014-Nov-19 19:25N 26°00' E 119°29'0 0.0
2014-Nov-19 18:31N 26°00' E 119°29'0 0.1
2014-Nov-19 17:31N 26°00' E 119°29'0 0.1
2014-Nov-19 16:31N 26°00' E 119°29'0 0.0
2014-Nov-19 15:31N 26°00' E 119°29'0 0.0
2014-Nov-19 14:31N 26°00' E 119°29'0 0.0
2014-Nov-19 13:31N 26°00' E 119°29'0 0.0
2014-Nov-19 12:25N 26°00' E 119°29'0 0.0
2014-Nov-19 11:31N 26°00' E 119°29'0 0.0
2014-Nov-19 10:31N 26°00' E 119°29'0 0.2
2014-Nov-19 09:33N 26°00' E 119°29'68 6.1
2014-Nov-18 22:33N 24°54' E 119°14'1010.4
2014-Nov-18 21:33N 24°47' E 119°06'1010.1
2014-Nov-18 20:33N 24°37' E 119°03'121 6.6
2014-Nov-18 02:07N 22°47' E 119°57'711.8
2014-Nov-18 01:33N 22°44' E 120°03'1312.7
2014-Nov-18 00:33N 22°37' E 120°15'5 5.1
2014-Nov-17 23:32N 22°34' E 120°19'0 0.0
2014-Nov-17 22:26N 22°34' E 120°19'0 0.0
2014-Nov-17 21:32N 22°34' E 120°19'0 0.0
2014-Nov-17 20:32N 22°34' E 120°19'0 0.0
2014-Nov-17 19:32N 22°34' E 120°19'1 1.0
2014-Nov-17 18:33N 22°33' E 120°20'0 0.2
2014-Nov-17 17:20N 22°33' E 120°20'0 0.0
2014-Nov-17 16:32N 22°33' E 120°20'0 0.0
2014-Nov-17 15:32N 22°33' E 120°20'0 0.0
2014-Nov-17 14:32N 22°33' E 120°20'0 0.0
2014-Nov-17 13:32N 22°33' E 120°20'0 0.0
2014-Nov-17 12:32N 22°33' E 120°20'1 0.8
2014-Nov-17 11:32N 22°33' E 120°19'3 3.4
2014-Nov-17 10:34N 22°32' E 120°16'0 0.0
2014-Nov-17 09:34N 22°32' E 120°16'0 0.0
2014-Nov-17 08:33N 22°32' E 120°16'0 0.0
2014-Nov-17 07:33N 22°32' E 120°16'0 0.0
2014-Nov-17 06:34N 22°32' E 120°16'  

Dump ship's entire track history